Necochea, Argentina
Current Conditions -  °F | °C
As of 1:00 AM on Thursday 23 Oct 2014 (Local Time) from SAZM Reporting Station
Broken Clouds Broken Clouds  
Wind Chill: 61°   Ceiling: 8000
Heat Index: 61°   Visibility: 4mi
Dew Point: 55°   Wind: 12mph
Humidity: 82%   Direction: 180°S
Pressure: 30.06"   Gusts: NA
Location:  36.9°S, 60.28°W
Report Text: SAZM 230400Z 18010KT 7000 SCT030 BKN08016/13 Q1018
Loading
Personal Weather Stations






























Interactive Weather Map
Tropical Storm Tracking
New forecast layout! Learn more

10-Day Weather Forecast

Advertisements
Track Severe Weather on mobile